Flight Track Log - Related Links

Times and Time Zones

All times are in EDT time to prevent confusion due to time zone crossing. See the UAL1082 flight status page for this flight to view local times or setup timezone preferences in your user account.

Time Position Orientation Groundspeed Altitude Reporting Facility
EDT Latitude Longitude Course Direction KTS MPH feet Rate Location/Type
Mon 09:42:15 AM 37.6667 -122.3500 54° Northeast 198 228 1,600  Level Northern Cal TRACON
Mon 09:43:15 AM 37.7167 -122.3333 15° North 229 264 4,200 2,150 Climbing Northern Cal TRACON
Mon 09:44:00 AM 37.9692 -122.3116 58° Northeast  Level FlightAware Approximate
Mon 09:44:15 AM 37.7833 -122.3667 338° Northwest 285 328 5,900  Level Northern Cal TRACON
Mon 09:45:00 AM 38.0471 -122.1772 53° Northeast  Level FlightAware Approximate
Mon 09:45:09 AM 37.8511 -122.3831 349° North 290 334 7,900  Level Oakland Center
Mon 09:46:00 AM 38.1305 -122.0482 46° Northeast  Level FlightAware Approximate
Mon 09:46:10 AM 37.9358 -122.3806 North 308 354 10,200  Level Oakland Center
Mon 09:47:00 AM 38.2132 -121.9186 54° Northeast  Level FlightAware Approximate
Mon 09:47:11 AM 37.9953 -122.2944 49° Northeast 328 377 12,500  Level Oakland Center
Mon 09:48:11 AM 38.0642 -122.1811 52° Northeast 338 389 14,800 2,182 Climbing Oakland Center
Mon 09:49:12 AM 38.1272 -122.0756 53° Northeast 372 428 16,900 1,884 Climbing Oakland Center
Mon 09:50:12 AM 38.1936 -121.9675 52° Northeast 386 444 18,600 1,686 Climbing Oakland Center
Mon 09:51:13 AM 38.2619 -121.8533 53° Northeast 403 464 20,300 1,736 Climbing Oakland Center
Mon 09:52:13 AM 38.3317 -121.7381 52° Northeast 411 473 22,100 1,686 Climbing Oakland Center
Mon 09:53:14 AM 38.4042 -121.6175 52° Northeast 425 489 23,700 1,537 Climbing Oakland Center
Mon 09:54:14 AM 38.4744 -121.4994 53° Northeast 430 495 25,200 1,388 Climbing Oakland Center
Mon 09:55:15 AM 38.5186 -121.3508 69° East 438 504 26,500 1,289 Climbing Oakland Center
Mon 09:56:15 AM 38.5606 -121.2031 70° East 441 507 27,800 1,388 Climbing Oakland Center
Mon 09:57:16 AM 38.6086 -121.0414 69° East 448 516 29,300 1,240 Climbing Oakland Center
Mon 09:58:16 AM 38.6517 -120.8928 70° East 447 514 30,300 843 Climbing Oakland Center
Mon 09:59:17 AM 38.7136 -120.7475 61° Northeast 464 534 31,000 744 Climbing Oakland Center
Mon 10:00:17 AM 38.7747 -120.5986 62° Northeast 471 542 31,800 893 Climbing Oakland Center
Mon 10:01:18 AM 38.8381 -120.4478 62° Northeast 478 550 32,800 942 Climbing Oakland Center
Mon 10:02:18 AM 38.9022 -120.2986 61° Northeast 480 552 33,700 843 Climbing Oakland Center
Mon 10:03:19 AM 38.9664 -120.1469 61° Northeast 482 555 34,500 639 Climbing Oakland Center
Mon 10:04:20 AM 39.0336 -119.9897 61° Northeast 488 562 35,000 248 Climbing Oakland Center
Mon 10:05:20 AM 39.0983 -119.8347 62° Northeast 491 565 35,000  Level Oakland Center
Mon 10:06:21 AM 39.1631 -119.6808 61° Northeast 490 564 35,000  Level Oakland Center
Mon 10:07:21 AM 39.2283 -119.5281 61° Northeast 487 560 35,000  Level Oakland Center
Mon 10:08:22 AM 39.2903 -119.3725 63° Northeast 488 562 35,000  Level Oakland Center
Mon 10:09:23 AM 39.3550 -119.2169 62° Northeast 491 565 35,000  Level Oakland Center
Mon 10:10:23 AM 39.4183 -119.0578 63° Northeast 494 568 35,000  Level Oakland Center
Mon 10:11:24 AM 39.4828 -118.9014 62° Northeast 488 562 35,000  Level Oakland Center
Mon 10:12:24 AM 39.5494 -118.7400 62° Northeast 493 567 35,000  Level Oakland Center
Mon 10:13:25 AM 39.6125 -118.5797 63° Northeast 492 566 35,000  Level Oakland Center
Mon 10:14:26 AM 39.6742 -118.4231 63° Northeast 486 559 35,000  Level Oakland Center
Mon 10:15:26 AM 39.7353 -118.2667 63° Northeast 485 558 35,000  Level Oakland Center
Mon 10:16:27 AM 39.7975 -118.1100 63° Northeast 486 559 35,000  Level Oakland Center
Mon 10:17:28 AM 39.8583 -117.9539 63° Northeast 485 558 35,000  Level Oakland Center
Mon 10:18:28 AM 39.9200 -117.7958 63° Northeast 488 562 35,000  Level Oakland Center
Mon 10:19:29 AM 39.9817 -117.6372 63° Northeast 489 563 35,000  Level Oakland Center
Mon 10:20:30 AM 40.0433 -117.4781 63° Northeast 491 565 35,000  Level Oakland Center
Mon 10:21:30 AM 40.1097 -117.3069 63° Northeast 496 571 35,000  Level Oakland Center
Mon 10:22:03 AM 40.1389 -117.2294 64° Northeast 496 571 35,000  Level Salt Lake Center
Mon 10:23:04 AM 40.1969 -117.0767 64° Northeast 493 567 35,000  Level Salt Lake Center
Mon 10:24:06 AM 40.2647 -116.8975 64° Northeast 496 571 35,000  Level Salt Lake Center
Mon 10:25:07 AM 40.3211 -116.7436 64° Northeast 502 578 35,000  Level Salt Lake Center
Mon 10:26:08 AM 40.3892 -116.5661 63° Northeast 497 572 35,000  Level Salt Lake Center
Mon 10:27:10 AM 40.4464 -116.4133 64° Northeast 491 565 35,000  Level Salt Lake Center
Mon 10:28:12 AM 40.5142 -116.2344 63° Northeast 491 565 35,000  Level Salt Lake Center
Mon 10:29:13 AM 40.5719 -116.0786 64° Northeast 494 568 35,000  Level Salt Lake Center
Mon 10:30:14 AM 40.6358 -115.8986 65° Northeast 489 563 35,000  Level Salt Lake Center
Mon 10:31:16 AM 40.6917 -115.7439 65° Northeast 490 564 35,000  Level Salt Lake Center
Mon 10:32:17 AM 40.7483 -115.5894 64° Northeast 490 564 35,000  Level Salt Lake Center
Mon 10:33:19 AM 40.8128 -115.4092 65° Northeast 489 563 35,000  Level Salt Lake Center
Mon 10:34:20 AM 40.8686 -115.2547 64° Northeast 486 559 35,000  Level Salt Lake Center
Mon 10:35:22 AM 40.9333 -115.0717 65° Northeast 492 566 35,000  Level Salt Lake Center
Mon 10:36:23 AM 40.9919 -114.9153 64° Northeast 495 570 35,000  Level Salt Lake Center
Mon 10:37:25 AM 41.0500 -114.7478 65° Northeast 494 568 35,000  Level Salt Lake Center
Mon 10:38:27 AM 41.1061 -114.5825 66° East 493 567 35,000  Level Salt Lake Center
Mon 10:39:28 AM 41.1647 -114.4186 65° Northeast 493 567 35,000  Level Salt Lake Center
Mon 10:40:30 AM 41.2219 -114.2533 65° Northeast 494 568 35,000  Level Salt Lake Center
Mon 10:41:31 AM 41.2903 -114.0533 65° Northeast 495 570 35,000  Level Salt Lake Center
Mon 10:42:33 AM 41.3467 -113.8878 66° East 493 567 35,000  Level Salt Lake Center
Mon 10:43:35 AM 41.3992 -113.7197 67° East 493 567 35,000  Level Salt Lake Center
Mon 10:44:36 AM 41.4483 -113.5500 69° East 492 566 35,000  Level Salt Lake Center
Mon 10:45:38 AM 41.4981 -113.3814 68° East 490 564 35,000  Level Salt Lake Center
Mon 10:46:40 AM 41.5478 -113.2114 69° East 491 565 35,000  Level Salt Lake Center
Mon 10:47:41 AM 41.5981 -113.0414 68° East 491 565 35,000  Level Salt Lake Center
Mon 10:48:43 AM 41.6478 -112.8706 69° East 494 568 35,000  Level Salt Lake Center
Mon 10:49:45 AM 41.7064 -112.6664 69° East 490 564 35,000  Level Salt Lake Center
Mon 10:50:46 AM 41.7547 -112.4942 69° East 492 566 35,000  Level Salt Lake Center
Mon 10:51:48 AM 41.8044 -112.3217 69° East 494 568 35,000  Level Salt Lake Center
Mon 10:52:50 AM 41.8531 -112.1503 69° East 493 567 35,000  Level Salt Lake Center
Mon 10:53:52 AM 41.9386 -112.0075 51° Northeast 501 577 35,000  Level Salt Lake Center
Mon 10:54:53 AM 42.0189 -111.8603 54° Northeast 489 563 35,000  Level Salt Lake Center
Mon 10:55:55 AM 42.0717 -111.6906 67° East 490 564 35,000  Level Salt Lake Center
Mon 10:56:57 AM 42.1072 -111.5172 74° East 481 554 35,000  Level Salt Lake Center
Mon 10:57:59 AM 42.1633 -111.3106 70° East 489 563 35,000  Level Salt Lake Center
Mon 10:59:00 AM 42.2081 -111.1381 71° East 488 562 35,000  Level Salt Lake Center
Mon 11:00:02 AM 42.2531 -110.9636 71° East 491 565 35,000  Level Salt Lake Center
Mon 11:01:04 AM 42.2997 -110.7836 71° East 492 566 35,000  Level Salt Lake Center
Mon 11:02:06 AM 42.3422 -110.6167 71° East 491 565 35,000  Level Salt Lake Center
Mon 11:03:08 AM 42.3922 -110.4219 71° East 492 566 35,000  Level Salt Lake Center
Mon 11:04:10 AM 42.4339 -110.2550 71° East 490 564 35,000  Level Salt Lake Center
Mon 11:05:11 AM 42.4833 -110.0572 71° East 494 568 35,000  Level Salt Lake Center
Mon 11:06:13 AM 42.5247 -109.8892 71° East 492 566 35,000  Level Salt Lake Center
Mon 11:07:15 AM 42.5667 -109.7211 71° East 491 565 35,000  Level Salt Lake Center
Mon 11:08:17 AM 42.6147 -109.5228 72° East 494 568 35,000  Level Salt Lake Center
Mon 11:09:19 AM 42.6564 -109.3525 72° East 496 571 35,000  Level Salt Lake Center
Mon 11:10:21 AM 42.7036 -109.1550 72° East 493 567 35,000  Level Salt Lake Center
Mon 11:11:23 AM 42.7442 -108.9833 72° East 495 570 35,000  Level Salt Lake Center
Mon 11:12:25 AM 42.7906 -108.7864 72° East 491 565 35,000  Level Salt Lake Center
Mon 11:13:27 AM 42.8306 -108.6169 72° East 491 565 35,000  Level Salt Lake Center
Mon 11:14:29 AM 42.8764 -108.4211 72° East 488 562 35,000  Level Salt Lake Center
Mon 11:15:31 AM 42.9153 -108.2542 72° East 485 558 35,000  Level Salt Lake Center
Mon 11:16:33 AM 42.9547 -108.0717 73° East 484 557 35,000  Level Salt Lake Center
Mon 11:17:35 AM 42.9936 -107.8997 73° East 480 552 35,000  Level Salt Lake Center
Mon 11:18:37 AM 43.0325 -107.7242 73° East 484 557 35,000  Level Salt Lake Center
Mon 11:19:39 AM 43.0714 -107.5494 73° East 484 557 35,000  Level Salt Lake Center
Mon 11:20:40 AM 43.1189 -107.3419 73° East 479 551 35,000  Level Salt Lake Center
Mon 11:21:42 AM 43.1564 -107.1650 74° East 485 558 35,000  Level Salt Lake Center
Mon 11:22:44 AM 43.1956 -106.9892 73° East 484 557 35,000  Level Salt Lake Center
Mon 11:23:46 AM 43.2333 -106.8078 74° East 482 555 35,000  Level Salt Lake Center
Mon 11:24:48 AM 43.2797 -106.6108 72° East 485 558 35,000  Level Salt Lake Center
Mon 11:25:45 AM 43.3069 -106.4689 75° East 481 554 35,000  Level Denver Center
Mon 11:26:47 AM 43.3492 -106.2728 73° East 479 551 35,000  Level Denver Center
Mon 11:27:49 AM 43.3831 -106.1033 75° East 480 552 35,000  Level Denver Center
Mon 11:28:51 AM 43.4242 -105.9058 74° East 479 551 35,000  Level Denver Center
Mon 11:29:53 AM 43.4597 -105.7356 74° East 482 555 35,000  Level Denver Center
Mon 11:30:55 AM 43.4992 -105.5389 74° East 478 550 35,000  Level Denver Center
Mon 11:31:58 AM 43.5336 -105.3667 75° East 483 556 35,000  Level Denver Center
Mon 11:33:12 AM 43.5733 -105.1689 74° East 480 552 35,000  Level Denver Center
Mon 11:34:14 AM 43.6122 -104.9708 75° East 479 551 35,000  Level Denver Center
Mon 11:35:16 AM 43.6517 -104.7706 75° East 481 554 35,000  Level Denver Center
Mon 11:36:18 AM 43.6842 -104.6000 75° East 480 552 35,000  Level Denver Center
Mon 11:37:20 AM 43.7222 -104.4000 75° East 481 554 35,000  Level Denver Center
Mon 11:38:22 AM 43.7544 -104.2269 75° East 483 556 35,000  Level Denver Center
Mon 11:39:36 AM 43.7925 -104.0300 75° East 477 549 35,000  Level Denver Center
Mon 11:40:39 AM 43.8292 -103.8281 76° East 481 554 35,000  Level Denver Center
Mon 11:41:41 AM 43.8642 -103.6289 76° East 476 548 35,000  Level Denver Center
Mon 11:42:43 AM 43.8961 -103.4600 75° East 475 547 35,000  Level Denver Center
Mon 11:43:45 AM 43.9339 -103.2628 75° East 473 544 35,000  Level Denver Center
Mon 11:44:47 AM 43.9647 -103.0906 76° East 477 549 35,000  Level Denver Center
Mon 11:45:49 AM 43.9981 -102.8867 77° East 483 556 35,000  Level Denver Center
Mon 11:47:03 AM 44.0289 -102.6933 77° East 481 554 35,000  Level Denver Center
Mon 11:48:05 AM 44.0586 -102.5136 77° East 480 552 35,000  Level Denver Center
Mon 11:49:08 AM 44.0942 -102.2967 77° East 480 552 35,000  Level Denver Center
Mon 11:50:10 AM 44.1200 -102.1142 79° East 481 554 35,000  Level Denver Center
Mon 11:51:12 AM 44.1486 -101.9311 78° East 485 558 35,000  Level Denver Center
Mon 11:52:14 AM 44.1747 -101.7489 79° East 482 555 35,000  Level Denver Center
Mon 11:53:16 AM 44.2022 -101.5653 78° East 485 558 35,000  Level Denver Center
Mon 11:53:47 AM 44.2206 -101.4589 76° East 483 556 35,000  Level Minneapolis Center
Mon 11:54:49 AM 44.2481 -101.2764 78° East 483 556 35,000  Level Minneapolis Center
Mon 11:55:51 AM 44.2756 -101.0939 78° East 483 556 35,000  Level Minneapolis Center
Mon 11:56:53 AM 44.3031 -100.9108 78° East 483 556 35,000  Level Minneapolis Center
Mon 11:57:54 AM 44.3350 -100.6903 78° East 484 557 35,000  Level Minneapolis Center
Mon 11:58:56 AM 44.3611 -100.5072 79° East 484 557 35,000  Level Minneapolis Center
Mon 12:00:10 PM 44.3864 -100.3250 79° East 482 555 35,000  Level Minneapolis Center
Mon 12:01:13 PM 44.4175 -100.1078 79° East 480 552 35,000  Level Minneapolis Center
Mon 12:02:14 PM 44.4419 -99.9261 79° East 479 551 35,000  Level Minneapolis Center
Mon 12:03:16 PM 44.4672 -99.7439 79° East 480 552 35,000  Level Minneapolis Center
Mon 12:04:18 PM 44.4975 -99.5264 79° East 479 551 35,000  Level Minneapolis Center
Mon 12:05:20 PM 44.5219 -99.3447 79° East 479 551 35,000  Level Minneapolis Center
Mon 12:06:22 PM 44.5458 -99.1619 80° East 479 551 35,000  Level Minneapolis Center
Mon 12:07:24 PM 44.5694 -98.9794 80° East 478 550 35,000  Level Minneapolis Center
Mon 12:08:26 PM 44.5936 -98.7942 80° East 483 556 35,000  Level Minneapolis Center
Mon 12:09:28 PM 44.6206 -98.5739 80° East 480 552 35,000  Level Minneapolis Center
Mon 12:10:30 PM 44.6436 -98.3889 80° East 482 555 35,000  Level Minneapolis Center
Mon 12:11:32 PM 44.6681 -98.1872 80° East 484 557 35,000  Level Minneapolis Center
Mon 12:12:33 PM 44.6894 -98.0011 81° East 484 557 35,000  Level Minneapolis Center
Mon 12:13:35 PM 44.7128 -97.8139 80° East 486 559 35,000  Level Minneapolis Center
Mon 12:14:37 PM 44.7322 -97.6275 82° East 485 558 35,000  Level Minneapolis Center
Mon 12:15:39 PM 44.7142 -97.4356 97° East 499 574 35,000  Level Minneapolis Center
Mon 12:16:41 PM 44.6944 -97.2414 98° East 502 578 35,000  Level Minneapolis Center
Mon 12:17:43 PM 44.6733 -97.0467 99° East 504 580 35,000  Level Minneapolis Center
Mon 12:18:45 PM 44.6472 -96.8153 99° East 501 577 35,000  Level Minneapolis Center
Mon 12:19:47 PM 44.6256 -96.6211 99° East 503 579 35,000  Level Minneapolis Center
Mon 12:20:49 PM 44.6036 -96.4258 99° East 504 580 35,000  Level Minneapolis Center
Mon 12:21:51 PM 44.5806 -96.2297 99° East 505 581 35,000  Level Minneapolis Center
Mon 12:22:53 PM 44.5575 -96.0333 99° East 506 582 35,000  Level Minneapolis Center
Mon 12:23:55 PM 44.5331 -95.8372 100° East 507 583 35,000  Level Minneapolis Center
Mon 12:24:57 PM 44.5097 -95.6397 99° East 510 587 35,000  Level Minneapolis Center
Mon 12:25:59 PM 44.4850 -95.4450 100° East 508 585 35,000  Level Minneapolis Center
Mon 12:27:01 PM 44.4542 -95.2103 100° East 511 588 35,000  Level Minneapolis Center
Mon 12:28:03 PM 44.4297 -95.0172 100° East 505 581 35,000  Level Minneapolis Center
Mon 12:29:05 PM 44.4072 -94.8269 99° East 500 575 35,000  Level Minneapolis Center
Mon 12:30:07 PM 44.3797 -94.6197 100° East 502 578 35,000  Level Minneapolis Center
Mon 12:31:21 PM 44.3517 -94.4272 101° East 505 581 35,000  Level Minneapolis Center
Mon 12:32:23 PM 44.3197 -94.1981 101° East 503 579 35,000  Level Minneapolis Center
Mon 12:33:26 PM 44.2944 -94.0106 101° East 498 573 35,000  Level Minneapolis Center
Mon 12:34:28 PM 44.2669 -93.8206 101° East 501 577 35,000  Level Minneapolis Center
Mon 12:35:30 PM 44.2361 -93.5939 101° East 501 577 35,000  Level Minneapolis Center
Mon 12:36:32 PM 44.2086 -93.4053 101° East 501 577 35,000  Level Minneapolis Center
Mon 12:37:34 PM 44.1808 -93.2158 101° East 503 579 35,000  Level Minneapolis Center
Mon 12:38:36 PM 44.1531 -93.0261 101° East 504 580 35,000  Level Minneapolis Center
Mon 12:39:38 PM 44.1306 -92.8747 102° East 504 580 35,000  Level Minneapolis Center
Mon 12:40:40 PM 44.0906 -92.6106 102° East 503 579 35,000  Level Minneapolis Center
Mon 12:41:42 PM 44.0600 -92.4211 103° East 504 580 35,000  Level Minneapolis Center
Mon 12:42:44 PM 43.9897 -92.2425 119° Southeast 528 608 35,000  Level Minneapolis Center
Mon 12:43:46 PM 43.9131 -92.0683 121° Southeast 530 610 35,000  Level Minneapolis Center
Mon 12:44:48 PM 43.8353 -91.8958 122° Southeast 531 611 35,000  Level Minneapolis Center
Mon 12:45:50 PM 43.7592 -91.7164 120° Southeast 536 617 35,000  Level Minneapolis Center
Mon 12:46:52 PM 43.6672 -91.5103 122° Southeast 530 610 35,000  Level Minneapolis Center
Mon 12:47:55 PM 43.5906 -91.3394 122° Southeast 528 608 35,000  Level Minneapolis Center
Mon 12:48:57 PM 43.5150 -91.1733 122° Southeast 521 600 35,000  Level Minneapolis Center
Mon 12:49:40 PM 43.4544 -91.0381 122° Southeast 521 600 35,000  Level Chicago Center
Mon 12:50:42 PM 43.4178 -90.8539 105° East 505 581 35,000  Level Chicago Center
Mon 12:51:44 PM 43.3969 -90.6697 99° East 493 567 35,000  Level Chicago Center
Mon 12:52:46 PM 43.3733 -90.4847 100° East 494 568 35,000  Level Chicago Center
Mon 12:53:48 PM 43.3508 -90.3000 99° East 494 568 35,000  Level Chicago Center
Mon 12:54:50 PM 43.3214 -90.0792 100° East 494 568 35,000  Level Chicago Center
Mon 12:55:52 PM 43.2969 -89.8928 100° East 496 571 35,000  Level Chicago Center
Mon 12:56:54 PM 43.2714 -89.7083 101° East 494 568 35,000  Level Chicago Center
Mon 12:57:56 PM 43.2458 -89.5239 101° East 493 567 35,000  Level Chicago Center
Mon 12:58:58 PM 43.2206 -89.3400 101° East 493 567 35,000  Level Chicago Center
Mon 01:00:00 PM 43.1906 -89.1283 101° East 490 564 35,000  Level Chicago Center
Mon 01:01:02 PM 43.1661 -88.9483 100° East 484 557 35,000  Level Chicago Center
Mon 01:02:04 PM 43.1522 -88.7694 96° East 475 547 35,000  Level Chicago Center
Mon 01:03:06 PM 43.1461 -88.5900 93° East 476 548 35,000  Level Chicago Center
Mon 01:04:08 PM 43.1406 -88.3789 92° East 481 554 35,000  Level Chicago Center
Mon 01:05:10 PM 43.1378 -88.1969 91° East 481 554 35,000  Level Chicago Center
Mon 01:06:12 PM 43.1347 -88.0144 91° East 482 555 35,000  Level Chicago Center
Mon 01:07:14 PM 43.1328 -87.8333 91° East 479 551 35,000  Level Chicago Center
Mon 01:08:16 PM 43.1156 -87.6514 97° East 486 559 35,000  Level Chicago Center
Mon 01:09:18 PM 43.0781 -87.4419 104° East 486 559 35,000  Level Chicago Center
Mon 01:10:20 PM 43.0453 -87.2625 104° East 488 562 35,000  Level Chicago Center
Mon 01:11:23 PM 43.0139 -87.0836 103° East 485 558 35,000  Level Chicago Center
Mon 01:12:25 PM 42.9806 -86.9056 104° East 485 558 35,000  Level Chicago Center
Mon 01:13:27 PM 42.9483 -86.7281 104° East 486 559 35,000  Level Chicago Center
Mon 01:14:29 PM 42.9136 -86.5458 105° East 488 562 35,000  Level Chicago Center
Mon 01:15:31 PM 42.8733 -86.3358 105° East 491 565 35,000  Level Chicago Center
Mon 01:16:33 PM 42.8389 -86.1586 105° East 492 566 35,000  Level Chicago Center
Mon 01:17:35 PM 42.8053 -85.9794 104° East 497 572 35,000  Level Chicago Center
Mon 01:18:37 PM 42.7717 -85.8000 104° East 498 573 35,000  Level Chicago Center
Mon 01:19:39 PM 42.7286 -85.5831 105° East 499 574 35,000  Level Chicago Center
Mon 01:20:41 PM 42.6939 -85.4028 105° East 498 573 35,000  Level Chicago Center
Mon 01:21:43 PM 42.6569 -85.2228 106° East 496 571 35,000  Level Chicago Center
Mon 01:22:45 PM 42.6219 -85.0417 105° East 498 573 35,000  Level Chicago Center
Mon 01:23:47 PM 42.5842 -84.8597 106° East 502 578 35,000  Level Chicago Center
Mon 01:24:49 PM 42.5389 -84.6383 105° East 510 587 35,000  Level Chicago Center
Mon 01:25:51 PM 42.4861 -84.4622 112° Southeast 509 586 35,000  Level Chicago Center
Mon 01:26:53 PM 42.4183 -84.2944 119° Southeast 511 588 35,000  Level Chicago Center
Mon 01:27:56 PM 42.3517 -84.1275 118° Southeast 508 585 35,000  Level Chicago Center
Mon 01:28:58 PM 42.2850 -83.9600 118° Southeast 507 583 35,000  Level Chicago Center
Mon 01:30:00 PM 42.2208 -83.7911 117° Southeast 507 583 35,000  Level Chicago Center
Mon 01:31:16 PM 42.1844 -83.5453 101° East 497 572 35,000  Level Cleveland Center
Mon 01:32:16 PM 42.1619 -83.3536 99° East 507 583 35,000  Level Cleveland Center
Mon 01:33:16 PM 42.1419 -83.1456 97° East 507 583 35,000  Level Cleveland Center
Mon 01:34:16 PM 42.1231 -82.9544 98° East 513 590 35,000  Level Cleveland Center
Mon 01:35:16 PM 42.1061 -82.7633 97° East 513 590 35,000  Level Cleveland Center
Mon 01:36:16 PM 42.0803 -82.5750 100° East 506 582 35,000  Level Cleveland Center
Mon 01:37:16 PM 42.0625 -82.3817 97° East 506 582 35,000  Level Cleveland Center
Mon 01:38:16 PM 42.0444 -82.1908 97° East 506 582 35,000  Level Cleveland Center
Mon 01:39:16 PM 42.0264 -81.9975 97° East 514 592 35,000  Level Cleveland Center
Mon 01:40:16 PM 42.0075 -81.8267 98° East 514 592 35,000  Level Cleveland Center
Mon 01:41:16 PM 41.9864 -81.6364 98° East 521 600 35,000  Level Cleveland Center
Mon 01:42:16 PM 41.9631 -81.4433 99° East 526 605 35,000  Level Cleveland Center
Mon 01:43:16 PM 41.9414 -81.2531 99° East 520 598 35,000  Level Cleveland Center
Mon 01:44:16 PM 41.9172 -81.0436 99° East 522 601 35,000  Level Cleveland Center
Mon 01:45:16 PM 41.8950 -80.8481 99° East 522 601 35,000  Level Cleveland Center
Mon 01:46:16 PM 41.8703 -80.6611 100° East 522 601 35,000  Level Cleveland Center
Mon 01:47:16 PM 41.8494 -80.4689 98° East 522 601 35,000  Level Cleveland Center
Mon 01:48:16 PM 41.8242 -80.2794 100° East 515 593 35,000  Level Cleveland Center
Mon 01:49:16 PM 41.8006 -80.0872 99° East 521 600 35,000  Level Cleveland Center
Mon 01:50:16 PM 41.7767 -79.8981 100° East 521 600 35,000  Level Cleveland Center
Mon 01:51:16 PM 41.7503 -79.7175 101° East 508 585 35,000  Level Cleveland Center
Mon 01:52:16 PM 41.7300 -79.5314 98° East 503 579 35,000  Level Cleveland Center
Mon 01:53:16 PM 41.7053 -79.3456 100° East 503 579 35,000  Level Cleveland Center
Mon 01:54:16 PM 41.6825 -79.1792 100° East 503 579 35,000  Level Cleveland Center
Mon 01:55:16 PM 41.6572 -78.9933 100° East 503 579 35,000  Level Cleveland Center
Mon 01:56:16 PM 41.6292 -78.7886 100° East 503 579 35,000 -100 Level Cleveland Center
Mon 01:57:16 PM 41.6031 -78.6006 100° East 503 579 34,800 -600 Descending Cleveland Center
Mon 01:58:16 PM 41.5769 -78.4153 101° East 503 579 33,800 -951 Descending Cleveland Center
Mon 02:00:00 PM 41.5350 -78.1292 101° East 492 566 32,200 -920 Descending New York Center
Mon 02:00:59 PM 41.5086 -77.9489 101° East 492 566 31,300 -595 Descending New York Center
Mon 02:02:01 PM 41.4822 -77.7633 101° East 497 572 31,000 -150 Descending New York Center
Mon 02:02:59 PM 41.4592 -77.5836 100° East 497 572 31,000 -50 Level New York Center
Mon 02:04:00 PM 41.4286 -77.3869 102° East 497 572 30,900 -555 Descending New York Center
Mon 02:04:58 PM 41.4011 -77.2072 101° East 492 566 29,900 -1,008 Descending New York Center
Mon 02:05:59 PM 41.3753 -77.0303 101° East 492 566 28,900 -992 Descending New York Center
Mon 02:06:00 PM 41.3748 -77.0346 101° East  Level FlightAware Approximate
Mon 02:06:59 PM 41.3489 -76.8567 101° East 487 560 27,900  Level New York Center
Mon 02:07:58 PM 41.3153 -76.6933 105° East 476 548 26,900 -1,059 Descending New York Center
Mon 02:08:58 PM 41.2731 -76.5350 109° East 462 532 25,800 -1,537 Descending New York Center
Mon 02:09:59 PM 41.2303 -76.3850 111° Southeast 447 514 23,800 -1,820 Descending New York Center
Mon 02:11:00 PM 41.1822 -76.2569 116° Southeast 427 491 22,100 -1,279 Descending New York Center
Mon 02:12:01 PM 41.1233 -76.1311 122° Southeast 420 483 21,200 -966 Descending New York Center
Mon 02:12:58 PM 41.0622 -76.0078 123° Southeast 409 471 20,200 -1,322 Descending New York Center
Mon 02:13:59 PM 40.9625 -75.9561 159° South 331 381 18,600 -1,884 Descending New York Center
Mon 02:14:59 PM 40.8625 -75.9542 179° South 350 403 16,400 -2,017 Descending New York Center
Mon 02:15:58 PM 40.7783 -75.9258 166° South 360 414 14,600 -2,000 Descending New York Center
Mon 02:16:59 PM 40.7275 -75.8014 118° Southeast 333 383 12,400 -1,339 Descending New York Center
Mon 02:17:59 PM 40.7389 -75.6736 83° East 324 373 11,900 -197 Descending New York Center
Mon 02:19:01 PM 40.7567 -75.5489 79° East 335 386 12,000 -100 Climbing New York Center
Mon 02:19:59 PM 40.7703 -75.4156 82° East 358 412 11,700 -655 Descending New York Center
Mon 02:21:00 PM 40.7853 -75.2986 80° East 340 391 10,700 -843 Descending New York Center
Mon 02:22:00 PM 40.7978 -75.1844 82° East 323 372 10,000 -850 Descending New York Center
Mon 02:23:00 PM 40.8097 -75.0892 81° East 309 356 9,000 -1,160 Descending New York Center
Mon 02:23:59 PM 40.8217 -74.9858 81° East 290 334 7,700 -1,008 Descending New York Center
Mon 02:24:59 PM 40.8361 -74.8742 80° East 285 328 7,000 -298 Descending New York Center
Mon 02:26:00 PM 40.8494 -74.7900 78° East 267 307 7,100 -496 Climbing New York Center
Mon 02:27:00 PM 40.8697 -74.6814 76° East 267 307 6,000 -504 Descending New York Center
Mon 02:27:59 PM 40.8831 -74.5917 79° East 275 316 6,100 -504 Climbing New York Center
Mon 02:28:59 PM 40.9031 -74.4856 76° East 275 316 5,000 -545 Descending New York Center
Mon 02:30:00 PM 40.9183 -74.3986 77° East 275 316 5,000 -248 Level New York Center
Mon 02:31:00 PM 40.9364 -74.2897 78° East 275 316 4,500 -500 Descending New York Center
Mon 02:32:00 PM 40.9347 -74.2044 91° East 266 306 4,000 -454 Descending New York Center
Mon 02:32:59 PM 40.9119 -74.1264 111° Southeast 235 270 3,600 -454 Descending New York Center
Mon 02:33:59 PM 40.8547 -74.0825 150° Southeast 217 250 3,100 -694 Descending New York Center
Mon 02:35:00 PM 40.8044 -74.0964 192° South 212 244 2,200 -950 Descending New York Center
Mon 02:35:59 PM 40.7472 -74.1264 202° Southwest 205 236 1,200 -1,017 Descending New York Center

Login

Don't have an account? Register now (free) for customized features, flight alerts, and more!